createdAt,value
2023-04-02T00:00:01.066Z,95918.59
2023-04-02T00:02:31.533Z,95905.91
2023-04-02T00:05:16.790Z,95921.28
2023-04-02T00:07:48.996Z,95919.72
2023-04-02T00:10:35.669Z,95913.84
2023-04-02T00:13:11.978Z,95931.63
2023-04-02T00:15:43.971Z,95921.81
2023-04-02T00:18:16.530Z,95833.94
2023-04-02T00:20:47.833Z,95923.31
2023-04-02T00:23:15.643Z,95928.81
2023-04-02T00:25:45.528Z,95934.34
2023-04-02T00:28:20.843Z,95838.84
2023-04-02T00:30:54.149Z,95907.69
2023-04-02T00:33:22.199Z,95945.38
2023-04-02T00:35:51.150Z,95931.88
2023-04-02T00:38:31.700Z,95883.69
2023-04-02T00:41:07.266Z,95869.56
2023-04-02T00:43:39.715Z,95929.72
2023-04-02T00:46:15.927Z,95921.06
2023-04-02T00:48:59.646Z,95931.75
2023-04-02T00:51:30.019Z,95915.59
2023-04-02T00:54:00.475Z,95914.75
2023-04-02T00:56:42.597Z,95834.09
2023-04-02T00:59:20.735Z,95917.97
2023-04-02T01:01:54.365Z,95907.75
2023-04-02T01:04:36.496Z,95823.09
2023-04-02T01:07:07.271Z,95913.28
2023-04-02T01:10:00.378Z,95895.91
2023-04-02T01:12:53.286Z,95816.78
2023-04-02T01:15:24.663Z,95902.22
2023-04-02T01:18:13.775Z,95903.81
2023-04-02T01:20:59.648Z,95908.53
2023-04-02T01:23:42.083Z,95903.75
2023-04-02T01:26:27.323Z,95917.16
2023-04-02T01:29:06.875Z,95898.97
2023-04-02T01:31:34.738Z,95863.69
2023-04-02T01:34:06.082Z,95902.09
2023-04-02T01:36:41.516Z,95911.50
2023-04-02T01:39:42.033Z,95909.50
2023-04-02T01:42:23.388Z,95906.66
2023-04-02T01:44:52.549Z,95881.34
2023-04-02T01:47:28.931Z,95908.31
2023-04-02T01:50:02.767Z,95909.16
2023-04-02T01:52:42.320Z,95913.94
2023-04-02T01:55:13.200Z,95839.50
2023-04-02T01:57:47.440Z,95910.78
2023-04-02T02:00:15.943Z,95895.03
2023-04-02T02:02:46.410Z,95874.47
2023-04-02T02:05:16.311Z,95870.59
2023-04-02T02:07:43.513Z,95918.09
2023-04-02T02:10:33.818Z,95922.06
2023-04-02T02:13:01.247Z,95861.59
2023-04-02T02:15:28.785Z,95828.44
2023-04-02T02:18:03.225Z,95913.41
2023-04-02T02:20:31.230Z,95842.66
2023-04-02T02:22:58.832Z,95858.47
2023-04-02T02:25:30.446Z,95921.72
2023-04-02T02:27:57.062Z,95919.75
2023-04-02T02:30:29.012Z,95909.47
2023-04-02T02:33:06.721Z,95862.03
2023-04-02T02:35:43.116Z,95923.31
2023-04-02T02:38:34.737Z,95938.75
2023-04-02T02:41:17.828Z,95928.44
2023-04-02T02:44:00.688Z,95924.50
2023-04-02T02:46:29.435Z,95913.38
2023-04-02T02:48:59.127Z,95937.53
2023-04-02T02:51:38.200Z,95935.56
2023-04-02T02:54:06.146Z,95928.44
2023-04-02T02:56:38.827Z,95935.53
2023-04-02T02:59:08.619Z,95929.19
2023-04-02T03:01:35.871Z,95939.47
2023-04-02T03:04:03.592Z,95890.41
2023-04-02T03:06:30.996Z,95934.28
2023-04-02T03:09:03.954Z,95935.50
2023-04-02T03:12:03.079Z,95943.38
2023-04-02T03:14:42.004Z,95933.50
2023-04-02T03:17:21.425Z,95895.09
2023-04-02T03:19:58.446Z,95872.13
2023-04-02T03:22:52.190Z,95938.59
2023-04-02T03:25:31.919Z,95939.34
2023-04-02T03:28:04.038Z,95917.19
2023-04-02T03:30:52.294Z,95952.78
2023-04-02T03:33:30.130Z,95889.47
2023-04-02T03:36:25.775Z,95951.94
2023-04-02T03:39:23.961Z,95953.47
2023-04-02T03:42:00.434Z,95952.69
2023-04-02T03:44:54.876Z,95898.88
2023-04-02T03:47:40.064Z,95965.72
2023-04-02T03:50:17.044Z,95967.25
2023-04-02T03:52:43.769Z,95922.41
2023-04-02T03:55:18.078Z,95924.84
2023-04-02T03:57:55.783Z,95970.00
2023-04-02T04:01:00.981Z,95979.94
2023-04-02T04:03:37.625Z,95922.16
2023-04-02T04:06:07.431Z,95963.03
2023-04-02T04:08:58.307Z,95937.25
2023-04-02T04:11:30.962Z,95942.78
2023-04-02T04:14:00.347Z,95944.41
2023-04-02T04:16:32.804Z,95974.50
2023-04-02T04:19:05.128Z,95976.91
2023-04-02T04:21:37.757Z,95682.25
2023-04-02T04:24:07.925Z,95974.97
2023-04-02T04:26:56.919Z,95987.63
2023-04-02T04:29:40.830Z,95986.06
2023-04-02T04:32:27.628Z,95906.47
2023-04-02T04:35:35.164Z,95987.22
2023-04-02T04:38:14.485Z,95993.16
2023-04-02T04:40:54.173Z,95964.63
2023-04-02T04:43:52.536Z,95999.44
2023-04-02T04:46:29.125Z,95992.34
2023-04-02T04:49:11.744Z,95996.72
2023-04-02T04:51:58.484Z,96005.03
2023-04-02T04:54:28.804Z,96001.81
2023-04-02T04:57:01.214Z,95999.50
2023-04-02T04:59:35.443Z,96005.03
2023-04-02T05:02:02.018Z,96015.66
2023-04-02T05:04:52.689Z,96020.03
2023-04-02T05:07:36.469Z,95978.25
2023-04-02T05:10:38.855Z,96023.50
2023-04-02T05:13:21.232Z,96019.19
2023-04-02T05:16:26.396Z,96029.19
2023-04-02T05:19:16.454Z,95975.53
2023-04-02T05:21:53.784Z,96043.38
2023-04-02T05:24:34.104Z,96013.81
2023-04-02T05:27:05.457Z,96034.44
2023-04-02T05:29:37.167Z,96017.03
2023-04-02T05:32:03.768Z,96024.91
2023-04-02T05:34:34.974Z,96033.94
2023-04-02T05:37:01.995Z,96036.69
2023-04-02T05:39:28.821Z,96049.75
2023-04-02T05:42:03.700Z,96046.97
2023-04-02T05:44:38.649Z,96004.97
2023-04-02T05:47:13.976Z,96038.16
2023-04-02T05:49:49.264Z,96044.41
2023-04-02T05:52:23.216Z,96039.56
2023-04-02T05:55:12.614Z,95943.16
2023-04-02T05:57:49.693Z,96032.81
2023-04-02T06:00:37.430Z,96037.97
2023-04-02T06:03:31.218Z,96035.59
2023-04-02T06:06:03.830Z,96041.91
2023-04-02T06:08:40.772Z,96039.50
2023-04-02T06:11:26.607Z,95991.31
2023-04-02T06:13:53.348Z,96037.88
2023-04-02T06:16:25.312Z,96039.81
2023-04-02T06:18:51.985Z,96005.34
2023-04-02T06:21:21.271Z,96047.09
2023-04-02T06:23:59.244Z,95979.19
2023-04-02T06:26:39.860Z,96053.22
2023-04-02T06:29:11.084Z,96047.09
2023-04-02T06:31:49.535Z,96045.69
2023-04-02T06:34:19.262Z,96046.41
2023-04-02T06:36:48.013Z,96040.69
2023-04-02T06:39:22.237Z,96065.91
2023-04-02T06:42:07.600Z,96056.13
2023-04-02T06:44:38.025Z,96053.84
2023-04-02T06:47:14.817Z,96055.81
2023-04-02T06:49:47.067Z,96058.72
2023-04-02T06:52:40.399Z,96069.81
2023-04-02T06:55:46.677Z,96061.09
2023-04-02T06:58:15.899Z,96051.00
2023-04-02T07:00:46.143Z,96070.78
2023-04-02T07:03:30.721Z,96015.63
2023-04-02T07:05:59.171Z,96035.97
2023-04-02T07:08:26.029Z,96076.09
2023-04-02T07:10:52.665Z,95998.38
2023-04-02T07:13:22.478Z,96062.97
2023-04-02T07:15:52.615Z,96028.19
2023-04-02T07:18:24.071Z,96066.81
2023-04-02T07:20:52.113Z,96072.19
2023-04-02T07:23:21.096Z,96066.47
2023-04-02T07:25:49.666Z,96065.84
2023-04-02T07:28:16.868Z,96079.44
2023-04-02T07:30:44.083Z,96055.72
2023-04-02T07:33:17.645Z,96085.44
2023-04-02T07:35:44.790Z,96089.84
2023-04-02T07:38:11.953Z,96091.72
2023-04-02T07:40:38.956Z,96083.44
2023-04-02T07:43:06.292Z,96081.59
2023-04-02T07:45:33.048Z,96087.94
2023-04-02T07:48:07.375Z,96091.00
2023-04-02T07:50:34.652Z,96052.88
2023-04-02T07:53:01.524Z,96039.97
2023-04-02T07:55:28.655Z,95930.22
2023-04-02T07:57:57.764Z,96086.91
2023-04-02T08:00:25.573Z,96077.31
2023-04-02T08:02:52.819Z,96035.06
2023-04-02T08:05:19.578Z,96072.25
2023-04-02T08:07:56.121Z,96079.09
2023-04-02T08:10:23.837Z,96085.34
2023-04-02T08:12:50.830Z,95986.44
2023-04-02T08:15:17.937Z,96078.53
2023-04-02T08:17:46.659Z,96043.16
2023-04-02T08:20:22.531Z,96082.69
2023-04-02T08:22:50.677Z,96090.63
2023-04-02T08:25:18.088Z,96048.81
2023-04-02T08:27:47.362Z,96078.41
2023-04-02T08:30:14.684Z,96082.97
2023-04-02T08:32:41.640Z,96079.97
2023-04-02T08:35:11.099Z,96029.94
2023-04-02T08:37:38.017Z,96024.44
2023-04-02T08:40:07.473Z,96057.59
2023-04-02T08:42:58.078Z,96080.84
2023-04-02T08:45:44.906Z,96075.38
2023-04-02T08:48:12.953Z,96071.00
2023-04-02T08:50:42.155Z,96073.09
2023-04-02T08:53:37.362Z,96013.44
2023-04-02T08:56:19.039Z,96036.38
2023-04-02T08:58:53.664Z,96046.69
2023-04-02T09:01:26.486Z,96083.94
2023-04-02T09:03:57.361Z,96078.78
2023-04-02T09:06:25.080Z,96062.47
2023-04-02T09:08:53.151Z,96045.44
2023-04-02T09:11:27.384Z,96077.72
2023-04-02T09:14:00.400Z,96029.16
2023-04-02T09:16:46.616Z,96077.81
2023-04-02T09:19:30.416Z,96094.94
2023-04-02T09:22:17.493Z,96090.31
2023-04-02T09:24:44.089Z,96021.09
2023-04-02T09:27:40.107Z,96090.78
2023-04-02T09:30:14.520Z,96093.25
2023-04-02T09:32:54.704Z,96088.53
2023-04-02T09:35:29.719Z,96087.47
2023-04-02T09:38:18.032Z,96085.56
2023-04-02T09:40:52.340Z,96083.63
2023-04-02T09:43:24.819Z,96086.19
2023-04-02T09:45:59.438Z,96074.06
2023-04-02T09:48:35.489Z,95962.28
2023-04-02T09:51:06.976Z,96073.19
2023-04-02T09:53:36.934Z,96062.66
2023-04-02T09:56:13.294Z,96071.53
2023-04-02T09:58:41.859Z,96070.44
2023-04-02T10:01:39.449Z,96076.47
2023-04-02T10:04:27.384Z,96066.94
2023-04-02T10:06:57.924Z,96063.59
2023-04-02T10:09:36.422Z,96070.31
2023-04-02T10:12:07.389Z,96057.75
2023-04-02T10:14:38.618Z,96063.56
2023-04-02T10:17:17.908Z,96055.88
2023-04-02T10:19:54.921Z,96058.38
2023-04-02T10:22:23.218Z,96052.50
2023-04-02T10:24:50.900Z,96053.78
2023-04-02T10:27:30.054Z,96047.03
2023-04-02T10:30:15.981Z,96063.00
2023-04-02T10:33:05.524Z,96051.66
2023-04-02T10:35:47.137Z,96048.28
2023-04-02T10:38:22.873Z,96055.81
2023-04-02T10:40:59.558Z,96047.88
2023-04-02T10:44:19.047Z,96034.47
2023-04-02T10:47:02.153Z,96044.38
2023-04-02T10:49:37.483Z,96042.31
2023-04-02T10:52:28.910Z,96036.88
2023-04-02T10:55:01.604Z,95998.22
2023-04-02T10:57:40.998Z,96025.13
2023-04-02T11:00:34.568Z,96016.75
2023-04-02T11:03:09.466Z,96030.59
2023-04-02T11:05:44.476Z,95985.63
2023-04-02T11:08:11.069Z,96030.34
2023-04-02T11:10:45.082Z,96026.13
2023-04-02T11:13:14.637Z,96024.94
2023-04-02T11:15:42.010Z,96015.53
2023-04-02T11:18:22.399Z,96028.88
2023-04-02T11:20:48.961Z,96012.03
2023-04-02T11:23:19.384Z,96016.75
2023-04-02T11:25:47.453Z,96016.78
2023-04-02T11:28:26.244Z,95925.69
2023-04-02T11:30:53.666Z,95975.00
2023-04-02T11:33:44.787Z,96005.25
2023-04-02T11:36:50.231Z,96010.16
2023-04-02T11:39:55.261Z,96004.31
2023-04-02T11:42:27.404Z,96006.13
2023-04-02T11:44:55.766Z,95999.59
2023-04-02T11:47:24.228Z,95998.16
2023-04-02T11:50:03.406Z,95998.41
2023-04-02T11:52:45.478Z,95994.53
2023-04-02T11:55:27.146Z,95978.78
2023-04-02T11:58:02.489Z,95999.19
2023-04-02T12:00:51.118Z,95997.75
2023-04-02T12:03:30.137Z,95992.78
2023-04-02T12:06:18.910Z,95991.63
2023-04-02T12:08:57.871Z,95986.78
2023-04-02T12:11:38.240Z,95971.88
2023-04-02T12:14:31.078Z,95980.25
2023-04-02T12:16:58.072Z,95977.25
2023-04-02T12:19:26.069Z,95969.31
2023-04-02T12:21:53.738Z,95975.88
2023-04-02T12:24:23.863Z,95896.19
2023-04-02T12:27:08.696Z,95971.66
2023-04-02T12:29:36.320Z,95975.56
2023-04-02T12:32:04.145Z,95970.88
2023-04-02T12:34:31.207Z,95892.81
2023-04-02T12:37:02.984Z,95962.81
2023-04-02T12:39:31.659Z,95941.97
2023-04-02T12:41:58.777Z,95919.91
2023-04-02T12:44:28.269Z,95967.81
2023-04-02T12:46:56.189Z,95961.56
2023-04-02T12:49:34.896Z,95895.81
2023-04-02T12:52:11.279Z,95970.31
2023-04-02T12:54:46.604Z,95959.03
2023-04-02T12:57:25.550Z,95967.19
2023-04-02T13:00:21.281Z,95970.69
2023-04-02T13:03:18.697Z,95965.69
2023-04-02T13:05:50.104Z,95980.50
2023-04-02T13:08:17.969Z,95965.53
2023-04-02T13:10:45.377Z,95971.16
2023-04-02T13:13:18.300Z,95891.56
2023-04-02T13:15:45.006Z,95956.56
2023-04-02T13:18:14.318Z,95944.94
2023-04-02T13:20:42.744Z,95955.31
2023-04-02T13:23:27.575Z,95954.88
2023-04-02T13:25:55.958Z,95923.97
2023-04-02T13:28:22.722Z,95950.59
2023-04-02T13:30:49.535Z,95820.56
2023-04-02T13:33:16.752Z,95962.53
2023-04-02T13:35:44.566Z,95959.66
2023-04-02T13:38:11.338Z,95951.13
2023-04-02T13:40:39.140Z,95901.25
2023-04-02T13:43:06.674Z,95938.56
2023-04-02T13:45:37.316Z,95960.91
2023-04-02T13:48:05.167Z,95948.34
2023-04-02T13:50:34.419Z,95944.63
2023-04-02T13:53:09.697Z,95930.00
2023-04-02T13:55:42.154Z,95931.63
2023-04-02T13:58:08.722Z,95944.66
2023-04-02T14:00:37.801Z,95944.13
2023-04-02T14:03:11.447Z,95874.53
2023-04-02T14:05:59.212Z,95936.50
2023-04-02T14:08:50.344Z,95941.13
2023-04-02T14:11:36.592Z,95940.66
2023-04-02T14:14:03.160Z,95936.25
2023-04-02T14:16:35.556Z,95929.47
2023-04-02T14:19:28.929Z,95936.03
2023-04-02T14:22:08.934Z,95957.66
2023-04-02T14:24:57.670Z,95941.88
2023-04-02T14:27:45.582Z,95945.97
2023-04-02T14:30:23.278Z,95938.13
2023-04-02T14:33:01.565Z,95945.56
2023-04-02T14:35:42.837Z,95634.75
2023-04-02T14:38:36.902Z,95940.84
2023-04-02T14:41:11.525Z,95949.16
2023-04-02T14:43:44.714Z,95882.09
2023-04-02T14:46:11.708Z,95932.13
2023-04-02T14:49:00.130Z,95933.75
2023-04-02T14:51:34.772Z,95937.34
2023-04-02T14:54:15.067Z,95952.63
2023-04-02T14:56:52.445Z,95952.69
2023-04-02T14:59:34.895Z,95953.78
2023-04-02T15:02:30.908Z,95958.13
2023-04-02T15:05:02.293Z,95964.22
2023-04-02T15:07:49.654Z,95920.22
2023-04-02T15:10:19.102Z,95970.19
2023-04-02T15:12:48.550Z,95915.09
2023-04-02T15:15:40.262Z,95967.28
2023-04-02T15:18:17.273Z,95966.66
2023-04-02T15:21:08.462Z,95983.91
2023-04-02T15:23:41.026Z,95972.84
2023-04-02T15:26:18.424Z,95980.88
2023-04-02T15:29:25.828Z,95982.50
2023-04-02T15:32:16.440Z,95977.44
2023-04-02T15:34:55.348Z,95983.16
2023-04-02T15:37:35.644Z,95993.06
2023-04-02T15:40:20.331Z,95995.56
2023-04-02T15:42:56.881Z,95994.28
2023-04-02T15:45:53.941Z,95927.38
2023-04-02T15:48:57.605Z,96004.69
2023-04-02T15:51:42.903Z,95998.94
2023-04-02T15:54:28.205Z,96007.94
2023-04-02T15:57:21.499Z,96014.78
2023-04-02T16:00:19.595Z,96021.84
2023-04-02T16:02:46.294Z,96028.69
2023-04-02T16:05:12.889Z,96027.28
2023-04-02T16:07:40.311Z,96023.59
2023-04-02T16:10:40.048Z,95918.31
2023-04-02T16:13:19.477Z,96039.75
2023-04-02T16:16:02.333Z,96040.19
2023-04-02T16:19:15.982Z,96028.69
2023-04-02T16:21:47.141Z,96047.72
2023-04-02T16:24:13.841Z,96046.78
2023-04-02T16:26:58.983Z,96047.16
2023-04-02T16:30:03.360Z,96043.19
2023-04-02T16:32:48.071Z,96036.25
2023-04-02T16:35:46.930Z,95957.66
2023-04-02T16:38:31.802Z,96050.59
2023-04-02T16:41:43.588Z,96056.06
2023-04-02T16:44:25.430Z,96049.91
2023-04-02T16:47:16.829Z,96056.41
2023-04-02T16:50:08.413Z,96057.22
2023-04-02T16:52:47.218Z,96058.19
2023-04-02T16:55:38.423Z,96061.53
2023-04-02T16:58:14.144Z,96031.13
2023-04-02T17:01:14.065Z,96071.72
2023-04-02T17:04:06.663Z,96070.00
2023-04-02T17:06:43.513Z,96078.22
2023-04-02T17:09:32.111Z,96076.66
2023-04-02T17:12:23.283Z,96077.53
2023-04-02T17:15:09.309Z,96035.66
2023-04-02T17:17:41.664Z,96084.81
2023-04-02T17:20:19.019Z,96080.50
2023-04-02T17:22:46.881Z,95980.72
2023-04-02T17:25:25.949Z,96090.00
2023-04-02T17:27:57.055Z,96092.56
2023-04-02T17:30:37.670Z,96099.81
2023-04-02T17:33:26.730Z,96121.84
2023-04-02T17:36:22.308Z,96111.56
2023-04-02T17:38:48.858Z,96111.75
2023-04-02T17:41:54.995Z,96026.63
2023-04-02T17:44:50.434Z,96122.34
2023-04-02T17:48:03.085Z,96127.22
2023-04-02T17:50:50.667Z,96094.19
2023-04-02T17:53:42.238Z,96149.59
2023-04-02T17:56:22.928Z,96160.00
2023-04-02T17:59:06.127Z,96122.97
2023-04-02T18:01:49.997Z,96153.63
2023-04-02T18:04:28.980Z,96171.03
2023-04-02T18:07:24.619Z,96093.63
2023-04-02T18:10:30.078Z,96173.47
2023-04-02T18:13:06.931Z,96174.50
2023-04-02T18:15:55.496Z,96172.81
2023-04-02T18:18:31.071Z,96184.88
2023-04-02T18:21:06.642Z,96182.25
2023-04-02T18:24:06.276Z,96121.78
2023-04-02T18:26:58.941Z,96185.03
2023-04-02T18:29:54.474Z,96192.69
2023-04-02T18:32:24.237Z,96183.19
2023-04-02T18:35:02.986Z,96191.50
2023-04-02T18:37:51.405Z,96195.53
2023-04-02T18:40:55.849Z,96199.25
2023-04-02T18:44:19.514Z,96197.72
2023-04-02T18:47:03.511Z,95829.00
2023-04-02T18:49:43.655Z,96200.25
2023-04-02T18:52:16.447Z,96201.03
2023-04-02T18:54:48.744Z,96201.84
2023-04-02T18:57:22.163Z,96137.53
2023-04-02T18:59:51.196Z,96209.81
2023-04-02T19:02:20.736Z,96212.75
2023-04-02T19:05:01.117Z,96191.47
2023-04-02T19:07:29.650Z,96161.44
2023-04-02T19:10:04.338Z,96128.72
2023-04-02T19:12:33.820Z,96191.28
2023-04-02T19:15:00.507Z,96218.16
2023-04-02T19:17:44.270Z,96222.38
2023-04-02T19:20:11.022Z,96219.59
2023-04-02T19:23:12.208Z,96219.56
2023-04-02T19:25:47.982Z,96224.06
2023-04-02T19:28:33.419Z,96234.19
2023-04-02T19:31:37.786Z,96227.88
2023-04-02T19:34:16.391Z,96227.84
2023-04-02T19:36:48.829Z,96247.75
2023-04-02T19:39:46.823Z,96247.34
2023-04-02T19:42:21.289Z,96246.84
2023-04-02T19:44:51.741Z,96238.47
2023-04-02T19:47:20.003Z,96209.19
2023-04-02T19:49:46.651Z,96254.72
2023-04-02T19:52:13.573Z,96186.41
2023-04-02T19:54:40.495Z,96230.63
2023-04-02T19:57:07.271Z,96222.34
2023-04-02T19:59:33.945Z,96277.34
2023-04-02T20:02:05.808Z,96284.53
2023-04-02T20:04:32.546Z,96288.09
2023-04-02T20:06:59.129Z,96298.06
2023-04-02T20:09:25.780Z,96286.94
2023-04-02T20:11:52.341Z,96292.53
2023-04-02T20:14:18.916Z,96287.03
2023-04-02T20:16:45.965Z,96265.63
2023-04-02T20:19:14.146Z,96291.78
2023-04-02T20:21:40.974Z,96249.00
2023-04-02T20:24:08.299Z,96251.00
2023-04-02T20:26:36.323Z,96202.28
2023-04-02T20:29:03.257Z,96277.56
2023-04-02T20:31:30.363Z,96278.38
2023-04-02T20:33:58.278Z,96270.44
2023-04-02T20:36:25.374Z,96239.53
2023-04-02T20:38:52.592Z,96265.69
2023-04-02T20:41:19.895Z,96224.09
2023-04-02T20:43:46.493Z,96250.59
2023-04-02T20:46:13.615Z,96271.63
2023-04-02T20:48:40.917Z,96272.81
2023-04-02T20:51:09.756Z,96269.25
2023-04-02T20:53:37.900Z,96266.06
2023-04-02T20:56:12.318Z,96262.16
2023-04-02T20:58:39.749Z,96269.66
2023-04-02T21:01:15.746Z,96259.31
2023-04-02T21:03:42.981Z,96271.22
2023-04-02T21:06:21.255Z,96266.47
2023-04-02T21:08:48.958Z,96264.13
2023-04-02T21:11:16.243Z,96228.09
2023-04-02T21:13:44.185Z,96261.75
2023-04-02T21:16:16.235Z,96259.38
2023-04-02T21:18:43.259Z,96266.53
2023-04-02T21:21:13.613Z,96268.50
2023-04-02T21:23:41.945Z,96229.66
2023-04-02T21:26:15.029Z,96267.69
2023-04-02T21:28:42.238Z,96227.66
2023-04-02T21:31:17.927Z,96254.25
2023-04-02T21:33:47.014Z,96273.25
2023-04-02T21:36:19.835Z,96211.03
2023-04-02T21:38:49.757Z,96212.59
2023-04-02T21:41:21.338Z,96279.16
2023-04-02T21:43:48.618Z,96282.38
2023-04-02T21:46:24.354Z,96285.53
2023-04-02T21:48:52.367Z,96288.69
2023-04-02T21:51:22.468Z,96290.22
2023-04-02T21:53:49.576Z,96243.41
2023-04-02T21:56:18.756Z,96294.19
2023-04-02T21:58:47.010Z,96278.38
2023-04-02T22:01:26.658Z,96245.88
2023-04-02T22:03:55.545Z,96304.53
2023-04-02T22:06:23.784Z,96303.78
2023-04-02T22:09:06.051Z,96308.91
2023-04-02T22:11:35.809Z,96273.56
2023-04-02T22:14:03.834Z,96302.16
2023-04-02T22:16:31.846Z,96304.53
2023-04-02T22:19:01.827Z,96305.31
2023-04-02T22:21:30.795Z,96302.94
2023-04-02T22:24:01.713Z,96314.81
2023-04-02T22:26:28.973Z,96302.94
2023-04-02T22:28:55.971Z,96297.25
2023-04-02T22:31:24.734Z,96293.38
2023-04-02T22:33:52.473Z,96288.66
2023-04-02T22:36:20.141Z,96281.50
2023-04-02T22:38:46.784Z,96229.97
2023-04-02T22:41:16.276Z,96310.06
2023-04-02T22:43:44.549Z,96317.22
2023-04-02T22:46:13.222Z,96276.75
2023-04-02T22:48:40.932Z,96308.47
2023-04-02T22:51:08.884Z,96307.69
2023-04-02T22:53:36.718Z,96312.44
2023-04-02T22:56:06.891Z,96321.16
2023-04-02T22:58:34.231Z,96320.75
2023-04-02T23:01:08.932Z,96315.63
2023-04-02T23:03:35.651Z,96316.41
2023-04-02T23:06:08.544Z,96294.19
2023-04-02T23:08:36.745Z,96327.50
2023-04-02T23:11:09.904Z,96314.00
2023-04-02T23:13:37.847Z,96277.09
2023-04-02T23:16:06.628Z,96325.84
2023-04-02T23:18:34.756Z,96272.75
2023-04-02T23:21:01.954Z,96317.97
2023-04-02T23:23:29.950Z,96271.91
2023-04-02T23:26:21.169Z,96310.03
2023-04-02T23:28:48.833Z,96313.53
2023-04-02T23:31:18.655Z,96218.78
2023-04-02T23:33:45.996Z,96296.53
2023-04-02T23:36:27.581Z,96304.81
2023-04-02T23:38:56.044Z,96307.50
2023-04-02T23:41:26.907Z,96286.13
2023-04-02T23:43:55.525Z,96259.56
2023-04-02T23:46:23.128Z,96301.97
2023-04-02T23:48:50.696Z,96306.28
2023-04-02T23:51:17.700Z,96293.22
2023-04-02T23:53:45.470Z,96291.63
2023-04-02T23:56:12.248Z,96110.56
2023-04-02T23:58:38.898Z,96281.97
